Time;durP1;ratioP1;P1;durP2;ratioP2;P2;SDS_P1;SDS_P2;PMS_P1;PMS_P2;Temp;Humidity;BMP_temperature;BMP_pressure;BME280_temperature;BME280_humidity;BME280_pressure;Samples;Min_cycle;Max_cycle;Signal;HPM_P1;HPM_P2
2021/10/18 00:02:07;;;;;;;13.82;11.68;;;;;;;;;;10318673;28;20044;-64
2021/10/18 00:07:05;;;;;;;13.35;11.32;;;;;;;;;;10320444;28;20040;-64
2021/10/18 00:12:04;;;;;;;13.85;11.20;;;;;;;;;;10304017;28;20067;-65
2021/10/18 00:17:02;;;;;;;13.35;11.95;;;;;;;;;;10301207;28;20079;-65
2021/10/18 00:22:02;;;;;;;20.15;12.80;;;;;;;;;;10300838;28;20079;-64
2021/10/18 00:27:00;;;;;;;12.70;10.80;;;;;;;;;;10300126;28;20060;-64
2021/10/18 00:31:58;;;;;;;18.58;15.20;;;;;;;;;;10301736;28;20087;-65
2021/10/18 00:36:57;;;;;;;19.65;15.27;;;;;;;;;;10313605;28;20099;-65
2021/10/18 00:41:56;;;;;;;21.17;16.02;;;;;;;;;;10317420;28;20144;-65
2021/10/18 00:46:55;;;;;;;18.52;16.30;;;;;;;;;;10305553;28;20072;-65
2021/10/18 00:51:53;;;;;;;18.33;15.38;;;;;;;;;;10299330;28;20072;-65
2021/10/18 00:56:51;;;;;;;18.23;14.52;;;;;;;;;;10297768;28;20478;-65
2021/10/18 01:01:51;;;;;;;19.48;14.85;;;;;;;;;;10299482;28;20087;-64
2021/10/18 01:06:50;;;;;;;15.50;13.57;;;;;;;;;;10307765;28;20075;-65
2021/10/18 01:11:48;;;;;;;21.60;14.35;;;;;;;;;;10315404;28;20067;-65
2021/10/18 01:16:46;;;;;;;17.10;15.25;;;;;;;;;;10303960;28;20075;-64
2021/10/18 01:21:46;;;;;;;16.10;14.05;;;;;;;;;;10297889;28;20083;-65
2021/10/18 01:26:44;;;;;;;18.27;15.48;;;;;;;;;;10301906;28;20060;-65
2021/10/18 01:31:43;;;;;;;19.20;15.65;;;;;;;;;;10311231;28;20087;-65
2021/10/18 01:36:42;;;;;;;18.00;15.90;;;;;;;;;;10317043;28;20493;-64
2021/10/18 01:41:41;;;;;;;21.30;17.85;;;;;;;;;;10306396;28;20067;-64
2021/10/18 01:46:40;;;;;;;22.13;17.83;;;;;;;;;;10300489;28;20075;-65
2021/10/18 01:51:38;;;;;;;24.20;20.35;;;;;;;;;;10298558;28;20069;-65
2021/10/18 01:56:36;;;;;;;26.00;19.33;;;;;;;;;;10300612;28;20079;-65
2021/10/18 02:01:36;;;;;;;23.83;19.80;;;;;;;;;;10298095;28;20064;-65
2021/10/18 02:06:35;;;;;;;21.65;19.02;;;;;;;;;;10300923;28;20080;-65
2021/10/18 02:11:33;;;;;;;24.02;19.35;;;;;;;;;;10314041;28;20068;-64
2021/10/18 02:16:31;;;;;;;28.13;21.08;;;;;;;;;;10314237;28;20083;-65
2021/10/18 02:21:31;;;;;;;27.90;22.40;;;;;;;;;;10302664;28;20065;-64
2021/10/18 02:26:29;;;;;;;27.55;22.17;;;;;;;;;;10299329;28;20084;-64
2021/10/18 02:31:27;;;;;;;24.63;21.60;;;;;;;;;;10298833;28;20486;-65
2021/10/18 02:36:26;;;;;;;23.60;21.00;;;;;;;;;;10262626;28;20083;-65
2021/10/18 02:41:26;;;;;;;25.27;21.08;;;;;;;;;;10300237;28;20067;-64
2021/10/18 02:46:25;;;;;;;24.20;20.92;;;;;;;;;;10294594;28;20084;-64
2021/10/18 02:51:23;;;;;;;25.95;21.70;;;;;;;;;;10290176;28;20083;-65
2021/10/18 02:56:21;;;;;;;24.95;21.60;;;;;;;;;;10304068;28;20075;-65
2021/10/18 03:01:21;;;;;;;23.65;21.08;;;;;;;;;;10305898;28;20072;-64
2021/10/18 03:06:20;;;;;;;26.98;21.17;;;;;;;;;;10311197;28;20501;-65
2021/10/18 03:11:18;;;;;;;25.98;21.13;;;;;;;;;;10310807;28;20056;-64
2021/10/18 03:16:16;;;;;;;26.50;20.30;;;;;;;;;;10305749;28;20462;-65
2021/10/18 03:21:16;;;;;;;23.10;19.90;;;;;;;;;;10314706;28;20052;-65
2021/10/18 03:26:16;;;;;;;26.35;21.30;;;;;;;;;;10317196;28;20070;-65
2021/10/18 03:31:14;;;;;;;24.38;18.20;;;;;;;;;;10320344;28;20473;-64
2021/10/18 03:36:18;;;;;;;23.65;18.95;;;;;;;;;;10318408;28;20083;-64
2021/10/18 03:41:16;;;;;;;23.00;18.88;;;;;;;;;;10306028;28;20091;-65
2021/10/18 03:46:15;;;;;;;22.20;19.70;;;;;;;;;;10303735;28;20090;-64
2021/10/18 03:51:13;;;;;;;22.92;19.27;;;;;;;;;;10315475;28;20517;-65
2021/10/18 03:56:13;;;;;;;22.63;18.85;;;;;;;;;;10318020;28;20072;-65
2021/10/18 04:01:11;;;;;;;22.35;18.30;;;;;;;;;;10320247;28;20044;-65
2021/10/18 04:06:09;;;;;;;23.40;18.55;;;;;;;;;;10318123;28;20048;-64
2021/10/18 04:11:08;;;;;;;23.67;17.77;;;;;;;;;;10320017;28;20040;-65
2021/10/18 04:16:08;;;;;;;22.50;19.13;;;;;;;;;;10316402;28;20076;-65
2021/10/18 04:21:06;;;;;;;20.60;17.48;;;;;;;;;;10306950;28;20065;-64
2021/10/18 04:26:04;;;;;;;21.95;17.65;;;;;;;;;;10304442;28;20060;-64
2021/10/18 04:31:03;;;;;;;21.75;17.67;;;;;;;;;;10304847;28;20069;-64
2021/10/18 04:36:02;;;;;;;26.58;20.80;;;;;;;;;;10301647;28;20077;-65
2021/10/18 04:41:01;;;;;;;25.92;20.23;;;;;;;;;;10304820;28;20106;-65
2021/10/18 04:45:59;;;;;;;22.92;19.58;;;;;;;;;;10302704;28;20071;-65
2021/10/18 04:50:57;;;;;;;19.95;17.70;;;;;;;;;;10296148;28;20731;-65
2021/10/18 04:55:58;;;;;;;21.33;18.52;;;;;;;;;;10293649;28;20084;-65
2021/10/18 05:00:57;;;;;;;21.10;18.55;;;;;;;;;;10303124;28;20071;-64
2021/10/18 05:05:55;;;;;;;22.83;18.63;;;;;;;;;;10297519;28;20064;-66
2021/10/18 05:11:00;;;;;;;;;;;;;;;;;;10295476;28;20076;-65
2021/10/18 05:16:00;;;;;;;20.33;17.52;;;;;;;;;;10287484;28;19960;-65
2021/10/18 05:20:58;;;;;;;20.90;18.23;;;;;;;;;;10276513;28;20081;-64
2021/10/18 05:25:56;;;;;;;23.70;17.70;;;;;;;;;;10300559;28;20056;-65
2021/10/18 05:30:55;;;;;;;23.27;18.70;;;;;;;;;;10313232;28;20406;-65
2021/10/18 05:35:54;;;;;;;20.63;18.52;;;;;;;;;;10298657;28;20071;-65
2021/10/18 05:40:53;;;;;;;24.65;18.80;;;;;;;;;;10304582;28;20482;-66
2021/10/18 05:45:52;;;;;;;22.65;18.58;;;;;;;;;;10305928;28;20516;-66
2021/10/18 05:50:51;;;;;;;26.83;19.70;;;;;;;;;;10281495;28;20799;-64
2021/10/18 05:55:53;;;;;;;23.73;18.67;;;;;;;;;;10281687;28;20069;-65
2021/10/18 06:00:52;;;;;;;21.30;18.50;;;;;;;;;;10278956;28;20079;-64
2021/10/18 06:05:52;;;;;;;23.65;18.63;;;;;;;;;;10278785;28;20075;-64
2021/10/18 06:11:14;;;;;;;20.90;18.50;;;;;;;;;;10273139;28;20068;-63
2021/10/18 06:16:13;;;;;;;21.42;18.27;;;;;;;;;;10284191;28;20084;-64
2021/10/18 06:21:11;;;;;;;25.77;19.52;;;;;;;;;;10274654;28;21565;-64
2021/10/18 06:26:09;;;;;;;26.48;19.63;;;;;;;;;;10286230;28;20060;-63
2021/10/18 06:31:09;;;;;;;23.38;19.08;;;;;;;;;;10295738;28;20517;-65
2021/10/18 06:36:08;;;;;;;26.27;18.20;;;;;;;;;;10266536;28;20069;-65
2021/10/18 06:41:06;;;;;;;27.30;20.42;;;;;;;;;;10232989;28;20080;-65
2021/10/18 06:46:04;;;;;;;30.67;23.05;;;;;;;;;;10306040;28;20064;-65
2021/10/18 06:51:04;;;;;;;32.28;20.05;;;;;;;;;;10310918;28;20083;-65
2021/10/18 06:56:04;;;;;;;23.42;19.95;;;;;;;;;;10302459;28;20461;-65
2021/10/18 07:01:03;;;;;;;22.20;19.73;;;;;;;;;;10296759;28;20091;-65
2021/10/18 07:06:02;;;;;;;33.10;26.30;;;;;;;;;;10300090;28;20061;-65
2021/10/18 07:11:01;;;;;;;23.35;19.92;;;;;;;;;;10298164;28;20138;-65
2021/10/18 07:16:00;;;;;;;27.67;20.63;;;;;;;;;;10297223;28;20087;-66
2021/10/18 07:20:58;;;;;;;29.20;18.58;;;;;;;;;;10295136;28;20107;-65
2021/10/18 07:25:57;;;;;;;23.50;20.67;;;;;;;;;;10293417;28;20450;-65
2021/10/18 07:30:58;;;;;;;27.02;19.80;;;;;;;;;;10295418;28;20080;-65
2021/10/18 07:36:06;;;;;;;33.83;21.83;;;;;;;;;;10292749;28;20076;-65
2021/10/18 07:41:04;;;;;;;30.55;21.88;;;;;;;;;;10303826;28;20099;-65
2021/10/18 07:46:04;;;;;;;24.02;20.38;;;;;;;;;;10305658;28;20524;-65
2021/10/18 07:51:02;;;;;;;25.15;22.45;;;;;;;;;;10303146;28;20069;-65
2021/10/18 07:56:00;;;;;;;25.27;22.23;;;;;;;;;;10300071;28;20490;-65
2021/10/18 08:00:58;;;;;;;30.20;22.63;;;;;;;;;;10305243;28;20068;-64
2021/10/18 08:05:58;;;;;;;25.85;22.98;;;;;;;;;;10297785;28;20064;-65
2021/10/18 08:11:00;;;;;;;29.13;24.88;;;;;;;;;;10306123;28;20076;-65
2021/10/18 08:15:58;;;;;;;25.58;21.15;;;;;;;;;;10306850;28;20065;-65
2021/10/18 08:21:02;;;;;;;29.83;24.42;;;;;;;;;;10291977;28;20497;-64
2021/10/18 08:26:01;;;;;;;31.95;28.40;;;;;;;;;;10297106;28;20076;-65
2021/10/18 08:30:59;;;;;;;31.63;24.60;;;;;;;;;;10303158;28;20080;-66
2021/10/18 08:35:58;;;;;;;27.60;24.08;;;;;;;;;;10297745;28;20084;-65
2021/10/18 08:41:04;;;;;;;24.35;21.45;;;;;;;;;;10305930;28;20083;-65
2021/10/18 08:46:03;;;;;;;27.52;24.33;;;;;;;;;;10315597;28;20072;-66
2021/10/18 08:51:18;;;;;;;33.63;26.63;;;;;;;;;;10316673;28;20064;-65
2021/10/18 08:56:18;;;;;;;31.23;26.98;;;;;;;;;;10316331;28;20475;-64
2021/10/18 09:01:16;;;;;;;24.35;21.75;;;;;;;;;;10305416;28;20084;-65
2021/10/18 09:06:15;;;;;;;33.30;25.35;;;;;;;;;;10297845;28;20068;-64
2021/10/18 09:11:15;;;;;;;28.13;23.80;;;;;;;;;;10307283;28;20085;-65
2021/10/18 09:16:24;;;;;;;28.50;24.23;;;;;;;;;;10308400;28;20072;-65
2021/10/18 09:21:27;;;;;;;31.48;26.75;;;;;;;;;;10303664;28;20087;-65
2021/10/18 09:26:28;;;;;;;28.02;24.65;;;;;;;;;;10301663;28;20075;-65
2021/10/18 09:31:28;;;;;;;27.38;23.75;;;;;;;;;;10297524;28;20056;-66
2021/10/18 09:36:29;;;;;;;32.03;25.15;;;;;;;;;;10293692;28;20088;-65
2021/10/18 09:41:28;;;;;;;25.58;22.10;;;;;;;;;;10308819;28;20079;-65
2021/10/18 09:46:37;;;;;;;30.83;24.67;;;;;;;;;;10312192;28;20067;-65
2021/10/18 10:55:43;;;;;;;30.17;25.95;;;;;;;;;;10297951;28;20073;-65
2021/10/18 11:00:43;;;;;;;31.77;25.80;;;;;;;;;;10301250;28;20072;-65
2021/10/18 11:05:57;;;;;;;30.17;26.95;;;;;;;;;;10295735;28;20064;-65
2021/10/18 11:10:56;;;;;;;26.77;23.02;;;;;;;;;;10297229;28;20069;-66
2021/10/18 11:15:59;;;;;;;27.35;22.08;;;;;;;;;;10297012;28;20057;-66
2021/10/18 11:21:11;;;;;;;30.63;24.85;;;;;;;;;;10291876;28;20068;-65
2021/10/18 11:26:14;;;;;;;29.30;24.30;;;;;;;;;;10299230;28;20064;-66
2021/10/18 11:31:12;;;;;;;31.88;26.85;;;;;;;;;;10301993;28;20063;-65
2021/10/18 11:36:18;;;;;;;30.95;23.42;;;;;;;;;;10298158;28;20071;-67
2021/10/18 11:41:17;;;;;;;35.17;26.15;;;;;;;;;;10304668;28;20706;-65
2021/10/18 11:46:15;;;;;;;36.45;25.52;;;;;;;;;;10295222;28;20064;-66
2021/10/18 11:51:13;;;;;;;22.90;20.02;;;;;;;;;;10296137;28;20293;-65
2021/10/18 11:56:19;;;;;;;24.77;18.52;;;;;;;;;;10310434;28;20064;-66
2021/10/18 12:01:18;;;;;;;23.48;18.98;;;;;;;;;;10316769;28;20060;-65
2021/10/18 12:06:16;;;;;;;17.85;15.95;;;;;;;;;;10311631;28;20060;-65
2021/10/18 12:11:16;;;;;;;17.77;15.93;;;;;;;;;;10312279;28;20076;-65
2021/10/18 12:16:20;;;;;;;18.35;15.20;;;;;;;;;;10316395;28;20060;-65
2021/10/18 12:21:20;;;;;;;18.63;16.02;;;;;;;;;;10317848;28;20071;-64
2021/10/18 12:26:21;;;;;;;16.23;13.70;;;;;;;;;;10316761;28;20071;-64
2021/10/18 12:31:26;;;;;;;17.05;15.27;;;;;;;;;;10318131;28;20044;-66
2021/10/18 12:36:25;;;;;;;23.90;19.40;;;;;;;;;;10305646;28;20065;-66
2021/10/18 12:41:24;;;;;;;19.20;17.02;;;;;;;;;;10302090;28;20067;-66
2021/10/18 12:46:24;;;;;;;27.85;22.35;;;;;;;;;;10299101;28;20492;-66
2021/10/18 12:51:35;;;;;;;20.42;16.23;;;;;;;;;;10297899;28;20068;-66
2021/10/18 12:56:35;;;;;;;23.92;19.33;;;;;;;;;;10311991;28;20079;-66
2021/10/18 13:01:33;;;;;;;25.42;18.77;;;;;;;;;;10313638;28;20068;-65
2021/10/18 13:06:32;;;;;;;20.98;17.77;;;;;;;;;;10316144;28;20064;-66
2021/10/18 13:11:30;;;;;;;16.55;14.80;;;;;;;;;;10314602;28;20071;-65
2021/10/18 13:16:30;;;;;;;21.08;17.42;;;;;;;;;;10303139;28;20060;-65
2021/10/18 13:21:30;;;;;;;18.65;14.50;;;;;;;;;;10311421;28;20065;-66
2021/10/18 13:26:28;;;;;;;26.70;21.73;;;;;;;;;;10315015;28;20060;-65
2021/10/18 13:31:26;;;;;;;36.95;26.33;;;;;;;;;;10303289;28;20072;-65
2021/10/18 13:36:26;;;;;;;47.33;33.80;;;;;;;;;;10310395;28;20064;-65
2021/10/18 13:41:27;;;;;;;25.67;19.77;;;;;;;;;;10309357;28;20162;-65
2021/10/18 13:46:25;;;;;;;25.23;18.75;;;;;;;;;;10314089;28;20067;-66
2021/10/18 13:51:25;;;;;;;27.63;20.08;;;;;;;;;;10311838;28;20083;-66
2021/10/18 13:56:25;;;;;;;39.15;30.13;;;;;;;;;;10310777;28;20124;-65
2021/10/18 14:01:23;;;;;;;82.10;64.05;;;;;;;;;;10313627;28;20067;-65
2021/10/18 14:06:22;;;;;;;61.80;43.20;;;;;;;;;;10312638;28;20079;-65
2021/10/18 14:11:21;;;;;;;38.00;28.70;;;;;;;;;;10313706;28;20508;-65
2021/10/18 14:16:20;;;;;;;47.17;37.50;;;;;;;;;;10313479;28;20064;-65
2021/10/18 14:21:18;;;;;;;41.42;32.83;;;;;;;;;;10313325;28;20076;-66
2021/10/18 14:26:17;;;;;;;32.17;27.33;;;;;;;;;;10313756;28;20090;-65
2021/10/18 14:31:16;;;;;;;39.67;34.17;;;;;;;;;;10307832;28;20508;-65
2021/10/18 14:36:15;;;;;;;47.38;38.22;;;;;;;;;;10260011;28;20065;-65
2021/10/18 14:41:13;;;;;;;90.57;71.63;;;;;;;;;;10233348;28;20107;-65
2021/10/18 14:46:11;;;;;;;93.05;75.30;;;;;;;;;;10284017;28;20525;-66
2021/10/18 14:51:11;;;;;;;32.28;24.52;;;;;;;;;;10305912;28;20068;-66
2021/10/18 14:56:09;;;;;;;52.72;42.97;;;;;;;;;;10294749;28;20458;-65
2021/10/18 15:01:10;;;;;;;65.07;47.90;;;;;;;;;;10290196;28;20067;-66
2021/10/18 15:06:09;;;;;;;78.20;57.88;;;;;;;;;;10297058;28;20065;-65
2021/10/18 15:11:08;;;;;;;114.70;84.32;;;;;;;;;;10301236;28;20057;-65
2021/10/18 15:16:07;;;;;;;45.22;37.47;;;;;;;;;;10305437;28;20065;-65
2021/10/18 15:21:06;;;;;;;44.78;34.20;;;;;;;;;;10305593;28;20065;-65
2021/10/18 15:26:04;;;;;;;80.72;54.60;;;;;;;;;;10303327;28;20061;-66
2021/10/18 15:31:05;;;;;;;55.17;41.42;;;;;;;;;;10302302;28;20562;-65
2021/10/18 15:36:03;;;;;;;86.55;77.38;;;;;;;;;;10303724;28;20064;-66
2021/10/18 15:41:02;;;;;;;105.40;94.15;;;;;;;;;;10302350;28;20092;-66
2021/10/18 15:46:01;;;;;;;120.78;108.85;;;;;;;;;;10302244;28;20134;-66
2021/10/18 15:51:01;;;;;;;106.03;95.20;;;;;;;;;;10304292;28;20090;-65
2021/10/18 15:56:02;;;;;;;90.90;73.95;;;;;;;;;;10304833;28;20079;-65
2021/10/18 16:01:01;;;;;;;51.35;45.83;;;;;;;;;;10302157;28;20069;-65
2021/10/18 16:06:01;;;;;;;42.75;34.05;;;;;;;;;;10300684;28;20466;-65
2021/10/18 16:10:59;;;;;;;44.75;32.92;;;;;;;;;;10294447;28;20161;-65
2021/10/18 16:15:58;;;;;;;46.53;33.50;;;;;;;;;;10301300;28;20460;-65
2021/10/18 16:20:56;;;;;;;45.17;31.95;;;;;;;;;;10303398;28;20084;-65
2021/10/18 16:25:56;;;;;;;23.80;20.70;;;;;;;;;;10302635;28;20084;-65
2021/10/18 16:30:54;;;;;;;18.70;15.98;;;;;;;;;;10302154;28;20060;-65
2021/10/18 16:35:53;;;;;;;31.10;22.35;;;;;;;;;;10300982;28;20080;-65
2021/10/18 16:40:51;;;;;;;33.08;25.00;;;;;;;;;;10304331;28;20076;-65
2021/10/18 16:45:51;;;;;;;29.05;22.55;;;;;;;;;;10301390;28;20080;-65
2021/10/18 16:50:49;;;;;;;25.70;21.20;;;;;;;;;;10299747;28;20072;-65
2021/10/18 16:55:48;;;;;;;23.48;18.38;;;;;;;;;;10292223;28;20061;-66
2021/10/18 17:00:46;;;;;;;24.75;20.05;;;;;;;;;;10303972;28;20068;-65
2021/10/18 17:05:47;;;;;;;22.08;17.98;;;;;;;;;;10314701;28;20091;-65
2021/10/18 17:10:49;;;;;;;27.83;21.30;;;;;;;;;;10309459;28;20053;-67
2021/10/18 17:15:53;;;;;;;20.55;16.35;;;;;;;;;;10296685;28;20069;-65
2021/10/18 17:20:53;;;;;;;17.65;15.32;;;;;;;;;;10302713;28;20469;-65
2021/10/18 17:25:52;;;;;;;20.77;18.30;;;;;;;;;;10296459;28;20072;-65
2021/10/18 17:30:50;;;;;;;23.73;18.27;;;;;;;;;;10303376;28;20076;-65
2021/10/18 17:35:48;;;;;;;20.23;14.77;;;;;;;;;;10313623;28;20063;-64
2021/10/18 17:40:48;;;;;;;22.95;14.82;;;;;;;;;;10306686;28;20073;-66
2021/10/18 17:45:46;;;;;;;20.33;16.42;;;;;;;;;;10295677;28;20061;-66
2021/10/18 17:50:44;;;;;;;18.55;15.13;;;;;;;;;;10302302;28;20071;-64
2021/10/18 17:55:44;;;;;;;18.02;14.40;;;;;;;;;;10302799;28;20071;-64
2021/10/18 18:00:44;;;;;;;20.33;14.95;;;;;;;;;;10312098;28;20060;-63
2021/10/18 18:05:42;;;;;;;22.63;15.52;;;;;;;;;;10314341;28;20060;-64
2021/10/18 18:10:41;;;;;;;23.25;15.10;;;;;;;;;;10313197;28;20068;-64
2021/10/18 18:15:39;;;;;;;16.83;13.52;;;;;;;;;;10314003;28;20473;-65
2021/10/18 18:20:38;;;;;;;15.18;13.30;;;;;;;;;;10314352;28;20076;-65
2021/10/18 18:25:37;;;;;;;18.45;14.48;;;;;;;;;;10313306;28;20071;-65
2021/10/18 18:30:36;;;;;;;17.85;14.88;;;;;;;;;;10301304;28;20486;-63
2021/10/18 18:35:35;;;;;;;17.70;15.13;;;;;;;;;;10267505;28;20069;-63
2021/10/18 18:40:35;;;;;;;18.42;15.23;;;;;;;;;;10248658;28;20446;-64
2021/10/18 18:45:33;;;;;;;19.52;16.65;;;;;;;;;;10272024;28;20107;-64
2021/10/18 18:50:32;;;;;;;18.52;15.40;;;;;;;;;;10277080;28;20068;-64
2021/10/18 18:55:30;;;;;;;17.63;15.73;;;;;;;;;;10297823;28;20067;-64
2021/10/18 19:00:30;;;;;;;20.45;15.73;;;;;;;;;;10307754;28;20498;-65
2021/10/18 19:05:29;;;;;;;17.90;14.68;;;;;;;;;;10311551;28;20086;-66
2021/10/18 19:10:28;;;;;;;21.02;14.90;;;;;;;;;;10287643;28;20071;-64
2021/10/18 19:15:32;;;;;;;17.35;15.48;;;;;;;;;;10305165;28;20147;-64
2021/10/18 19:20:31;;;;;;;25.40;22.02;;;;;;;;;;10297556;28;20075;-64
2021/10/18 19:25:29;;;;;;;18.77;14.95;;;;;;;;;;10305993;28;20063;-65
2021/10/18 19:30:28;;;;;;;19.30;15.00;;;;;;;;;;10307309;28;21484;-65
2021/10/18 19:35:29;;;;;;;26.20;17.17;;;;;;;;;;10305390;28;20064;-65
2021/10/18 19:40:27;;;;;;;39.20;33.97;;;;;;;;;;10306990;28;20510;-65
2021/10/18 19:45:25;;;;;;;29.15;25.80;;;;;;;;;;10299375;28;20167;-63
2021/10/18 19:50:24;;;;;;;22.38;15.88;;;;;;;;;;10304190;28;20528;-64
2021/10/18 19:55:23;;;;;;;17.13;14.60;;;;;;;;;;10296089;28;20037;-64
2021/10/18 20:00:22;;;;;;;18.10;14.57;;;;;;;;;;10301488;28;20068;-65
2021/10/18 20:05:20;;;;;;;19.00;14.35;;;;;;;;;;10307313;28;20488;-65
2021/10/18 20:10:18;;;;;;;15.23;13.43;;;;;;;;;;10289687;28;20470;-64
2021/10/18 20:15:18;;;;;;;18.20;15.60;;;;;;;;;;10303162;28;20071;-65
2021/10/18 20:20:16;;;;;;;15.60;13.95;;;;;;;;;;10297177;28;20064;-64
2021/10/18 20:25:15;;;;;;;14.77;13.13;;;;;;;;;;10287470;28;20079;-65
2021/10/18 20:30:13;;;;;;;19.70;15.95;;;;;;;;;;10281382;28;20065;-63
2021/10/18 20:35:13;;;;;;;27.88;24.20;;;;;;;;;;10283486;28;20100;-66
2021/10/18 20:40:11;;;;;;;21.00;18.73;;;;;;;;;;10293832;28;20083;-64
2021/10/18 20:45:10;;;;;;;20.95;17.10;;;;;;;;;;10306101;28;20462;-64
2021/10/18 20:50:08;;;;;;;20.92;18.15;;;;;;;;;;10315244;28;20442;-64
2021/10/18 20:55:09;;;;;;;18.83;15.63;;;;;;;;;;10296395;28;20072;-65
2021/10/18 21:00:08;;;;;;;21.25;17.90;;;;;;;;;;10283878;28;20083;-64
2021/10/18 21:05:07;;;;;;;23.98;18.30;;;;;;;;;;10303014;28;20108;-63
2021/10/18 21:10:07;;;;;;;23.08;17.77;;;;;;;;;;10291648;28;20075;-64
2021/10/18 21:15:07;;;;;;;18.13;15.45;;;;;;;;;;10296795;28;20066;-64
2021/10/18 21:20:09;;;;;;;24.95;16.13;;;;;;;;;;10295952;28;20069;-65
2021/10/18 21:25:07;;;;;;;18.33;15.50;;;;;;;;;;10301903;28;20072;-64
2021/10/18 21:30:09;;;;;;;17.80;14.35;;;;;;;;;;10293821;28;20075;-65
2021/10/18 21:35:07;;;;;;;15.48;13.65;;;;;;;;;;10303008;28;20119;-65
2021/10/18 21:40:06;;;;;;;16.30;13.48;;;;;;;;;;10302493;28;20572;-65
2021/10/18 21:45:05;;;;;;;19.27;14.70;;;;;;;;;;10302815;28;20095;-65
2021/10/18 21:50:05;;;;;;;19.52;14.48;;;;;;;;;;10303752;28;20083;-64
2021/10/18 21:55:07;;;;;;;20.05;15.68;;;;;;;;;;10298215;28;20242;-65
2021/10/18 22:00:06;;;;;;;17.33;13.60;;;;;;;;;;10300988;28;20076;-64
2021/10/18 22:05:10;;;;;;;18.10;14.45;;;;;;;;;;10306197;28;20080;-65
2021/10/18 22:10:08;;;;;;;18.67;14.68;;;;;;;;;;10300217;28;20080;-65
2021/10/18 22:15:08;;;;;;;17.85;14.48;;;;;;;;;;10299258;28;20048;-65
2021/10/18 22:20:07;;;;;;;17.20;14.40;;;;;;;;;;10314015;28;20072;-65
2021/10/18 22:25:07;;;;;;;18.30;14.02;;;;;;;;;;10315836;28;20068;-64
2021/10/18 22:30:10;;;;;;;19.27;14.85;;;;;;;;;;10308786;28;20044;-65
2021/10/18 22:35:09;;;;;;;18.20;13.55;;;;;;;;;;10281324;28;20041;-65
2021/10/18 22:40:11;;;;;;;20.02;16.98;;;;;;;;;;10233763;28;20061;-65
2021/10/18 22:45:09;;;;;;;28.92;24.63;;;;;;;;;;10296330;28;20111;-65
2021/10/18 22:50:08;;;;;;;30.67;26.80;;;;;;;;;;10301824;28;20076;-65
2021/10/18 22:55:06;;;;;;;32.30;27.98;;;;;;;;;;10296300;28;20063;-65
2021/10/18 23:00:07;;;;;;;49.95;43.38;;;;;;;;;;10294655;28;20075;-65
2021/10/18 23:05:06;;;;;;;60.55;53.90;;;;;;;;;;10294107;28;20505;-65
2021/10/18 23:10:04;;;;;;;44.50;39.38;;;;;;;;;;10292923;28;20076;-65
2021/10/18 23:15:03;;;;;;;41.17;33.35;;;;;;;;;;10296158;28;20063;-65
2021/10/18 23:20:03;;;;;;;37.22;30.77;;;;;;;;;;10312154;28;20080;-65
2021/10/18 23:25:01;;;;;;;32.20;27.35;;;;;;;;;;10317441;28;20072;-65
2021/10/18 23:30:00;;;;;;;35.85;30.60;;;;;;;;;;10303115;28;20438;-65
2021/10/18 23:34:58;;;;;;;39.00;34.03;;;;;;;;;;10305325;28;20072;-65
2021/10/18 23:39:57;;;;;;;38.58;31.98;;;;;;;;;;10299738;28;20076;-65
2021/10/18 23:44:56;;;;;;;28.33;25.30;;;;;;;;;;10319095;28;20075;-64
2021/10/18 23:49:54;;;;;;;33.15;27.63;;;;;;;;;;10321256;28;20072;-65
2021/10/18 23:54:52;;;;;;;32.13;26.27;;;;;;;;;;10319967;28;20048;-66
2021/10/18 23:59:52;;;;;;;26.77;23.35;;;;;;;;;;10305515;28;20077;-64
